sensor_id;sensor_type;location;lat;lon;timestamp;pressure;altitude;pressure_sealevel;temperature;humidity
6532;BME280;3299;42.004;24.868;2023-05-19T00:01:42;98125.59;;;14.44;100.00
6532;BME280;3299;42.004;24.868;2023-05-19T00:04:08;98096.16;;;14.34;100.00
6532;BME280;3299;42.004;24.868;2023-05-19T00:06:36;98092.44;;;14.36;100.00
6532;BME280;3299;42.004;24.868;2023-05-19T00:09:04;98138.13;;;14.69;100.00
6532;BME280;3299;42.004;24.868;2023-05-19T00:11:32;98160.72;;;14.78;100.00
6532;BME280;3299;42.004;24.868;2023-05-19T00:13:58;98173.88;;;14.76;100.00
6532;BME280;3299;42.004;24.868;2023-05-19T00:16:26;98121.91;;;14.46;100.00
6532;BME280;3299;42.004;24.868;2023-05-19T00:18:51;98155.09;;;14.63;100.00
6532;BME280;3299;42.004;24.868;2023-05-19T00:21:18;98186.75;;;14.78;100.00
6532;BME280;3299;42.004;24.868;2023-05-19T00:23:44;98165.78;;;14.70;100.00
6532;BME280;3299;42.004;24.868;2023-05-19T00:26:09;98109.56;;;14.39;100.00
6532;BME280;3299;42.004;24.868;2023-05-19T00:28:35;98183.47;;;14.95;100.00
6532;BME280;3299;42.004;24.868;2023-05-19T00:31:01;98145.50;;;14.83;100.00
6532;BME280;3299;42.004;24.868;2023-05-19T00:33:27;98106.03;;;14.68;99.68
6532;BME280;3299;42.004;24.868;2023-05-19T00:35:52;98094.66;;;14.69;99.07
6532;BME280;3299;42.004;24.868;2023-05-19T00:38:17;98115.88;;;14.84;98.04
6532;BME280;3299;42.004;24.868;2023-05-19T00:40:43;98140.00;;;14.86;100.00
6532;BME280;3299;42.004;24.868;2023-05-19T00:43:09;98130.84;;;14.63;100.00
6532;BME280;3299;42.004;24.868;2023-05-19T00:45:34;98152.75;;;14.89;100.00
6532;BME280;3299;42.004;24.868;2023-05-19T00:47:59;98163.59;;;14.75;100.00
6532;BME280;3299;42.004;24.868;2023-05-19T00:50:26;98164.69;;;14.72;100.00
6532;BME280;3299;42.004;24.868;2023-05-19T00:52:53;98120.25;;;14.26;100.00
6532;BME280;3299;42.004;24.868;2023-05-19T00:55:25;98143.03;;;14.53;100.00
6532;BME280;3299;42.004;24.868;2023-05-19T00:57:52;98081.31;;;14.06;100.00
6532;BME280;3299;42.004;24.868;2023-05-19T01:00:18;98127.22;;;14.26;100.00
6532;BME280;3299;42.004;24.868;2023-05-19T01:02:43;98166.16;;;14.46;100.00
6532;BME280;3299;42.004;24.868;2023-05-19T01:05:08;98092.25;;;14.00;100.00
6532;BME280;3299;42.004;24.868;2023-05-19T01:07:34;98125.41;;;14.17;100.00
6532;BME280;3299;42.004;24.868;2023-05-19T01:10:01;98092.50;;;13.97;100.00
6532;BME280;3299;42.004;24.868;2023-05-19T01:12:27;98092.91;;;13.92;100.00
6532;BME280;3299;42.004;24.868;2023-05-19T01:14:53;98130.97;;;14.03;100.00
6532;BME280;3299;42.004;24.868;2023-05-19T01:17:43;98171.50;;;14.35;100.00
6532;BME280;3299;42.004;24.868;2023-05-19T01:20:23;98146.47;;;14.14;100.00
6532;BME280;3299;42.004;24.868;2023-05-19T01:33:06;98159.88;;;14.49;100.00
6532;BME280;3299;42.004;24.868;2023-05-19T01:35:35;98093.88;;;14.01;100.00
6532;BME280;3299;42.004;24.868;2023-05-19T01:38:02;98158.78;;;14.42;100.00
6532;BME280;3299;42.004;24.868;2023-05-19T01:40:29;98122.44;;;14.21;100.00
6532;BME280;3299;42.004;24.868;2023-05-19T01:42:57;98154.78;;;14.47;100.00
6532;BME280;3299;42.004;24.868;2023-05-19T01:45:24;98076.22;;;14.04;100.00
6532;BME280;3299;42.004;24.868;2023-05-19T01:47:52;98142.19;;;14.52;100.00
6532;BME280;3299;42.004;24.868;2023-05-19T01:50:18;98130.13;;;14.42;100.00
6532;BME280;3299;42.004;24.868;2023-05-19T01:52:43;98079.28;;;14.19;100.00
6532;BME280;3299;42.004;24.868;2023-05-19T01:55:09;98073.97;;;14.20;100.00
6532;BME280;3299;42.004;24.868;2023-05-19T02:03:56;98173.31;;;14.73;100.00
6532;BME280;3299;42.004;24.868;2023-05-19T02:06:45;98177.00;;;14.61;100.00
6532;BME280;3299;42.004;24.868;2023-05-19T02:09:29;98182.50;;;14.67;100.00
6532;BME280;3299;42.004;24.868;2023-05-19T02:12:02;98169.63;;;14.56;100.00
6532;BME280;3299;42.004;24.868;2023-05-19T02:14:39;98143.28;;;14.31;100.00
6532;BME280;3299;42.004;24.868;2023-05-19T02:17:07;98129.56;;;14.29;100.00
6532;BME280;3299;42.004;24.868;2023-05-19T02:19:37;98104.78;;;14.25;100.00
6532;BME280;3299;42.004;24.868;2023-05-19T02:22:03;98150.97;;;14.51;100.00
6532;BME280;3299;42.004;24.868;2023-05-19T02:24:28;98157.25;;;14.39;100.00
6532;BME280;3299;42.004;24.868;2023-05-19T02:26:54;98179.41;;;14.24;100.00
6532;BME280;3299;42.004;24.868;2023-05-19T02:29:19;98107.78;;;13.81;100.00
6532;BME280;3299;42.004;24.868;2023-05-19T02:31:45;98190.16;;;14.10;100.00
6532;BME280;3299;42.004;24.868;2023-05-19T02:34:11;98202.16;;;13.92;100.00
6532;BME280;3299;42.004;24.868;2023-05-19T02:36:39;98177.44;;;13.77;100.00
6532;BME280;3299;42.004;24.868;2023-05-19T02:39:11;98151.75;;;13.54;100.00
6532;BME280;3299;42.004;24.868;2023-05-19T02:41:37;98104.88;;;13.35;100.00
6532;BME280;3299;42.004;24.868;2023-05-19T02:44:03;98192.59;;;13.72;100.00
6532;BME280;3299;42.004;24.868;2023-05-19T02:46:29;98117.44;;;13.30;100.00
6532;BME280;3299;42.004;24.868;2023-05-19T02:48:54;98102.09;;;13.27;100.00
6532;BME280;3299;42.004;24.868;2023-05-19T02:51:20;98148.06;;;13.56;100.00
6532;BME280;3299;42.004;24.868;2023-05-19T02:53:45;98121.59;;;13.42;100.00
6532;BME280;3299;42.004;24.868;2023-05-19T02:56:11;98165.63;;;13.64;100.00
6532;BME280;3299;42.004;24.868;2023-05-19T02:58:36;98136.78;;;13.46;100.00
6532;BME280;3299;42.004;24.868;2023-05-19T03:01:02;98132.00;;;13.42;100.00
6532;BME280;3299;42.004;24.868;2023-05-19T03:03:27;98132.00;;;13.42;100.00
6532;BME280;3299;42.004;24.868;2023-05-19T03:05:53;98148.16;;;13.45;100.00
6532;BME280;3299;42.004;24.868;2023-05-19T03:08:18;98104.44;;;13.30;100.00
6532;BME280;3299;42.004;24.868;2023-05-19T03:10:45;98157.81;;;13.64;100.00
6532;BME280;3299;42.004;24.868;2023-05-19T03:13:11;98161.38;;;13.72;100.00
6532;BME280;3299;42.004;24.868;2023-05-19T03:15:36;98189.03;;;13.94;100.00
6532;BME280;3299;42.004;24.868;2023-05-19T03:18:02;98125.75;;;13.54;100.00
6532;BME280;3299;42.004;24.868;2023-05-19T03:20:27;98165.69;;;13.83;100.00
6532;BME280;3299;42.004;24.868;2023-05-19T03:22:54;98127.63;;;13.52;100.00
6532;BME280;3299;42.004;24.868;2023-05-19T03:25:20;98210.03;;;14.11;100.00
6532;BME280;3299;42.004;24.868;2023-05-19T03:27:45;98130.88;;;13.65;100.00
6532;BME280;3299;42.004;24.868;2023-05-19T03:30:11;98173.50;;;13.83;100.00
6532;BME280;3299;42.004;24.868;2023-05-19T03:32:37;98165.59;;;13.94;100.00
6532;BME280;3299;42.004;24.868;2023-05-19T03:35:05;98130.06;;;13.74;100.00
6532;BME280;3299;42.004;24.868;2023-05-19T03:37:31;98209.22;;;14.11;100.00
6532;BME280;3299;42.004;24.868;2023-05-19T03:39:59;98192.47;;;14.04;100.00
6532;BME280;3299;42.004;24.868;2023-05-19T03:42:24;98205.91;;;14.09;100.00
6532;BME280;3299;42.004;24.868;2023-05-19T03:44:50;98202.31;;;14.00;100.00
6532;BME280;3299;42.004;24.868;2023-05-19T03:47:16;98215.34;;;14.10;100.00
6532;BME280;3299;42.004;24.868;2023-05-19T03:49:41;98164.59;;;13.76;100.00
6532;BME280;3299;42.004;24.868;2023-05-19T03:52:06;98205.91;;;14.09;100.00
6532;BME280;3299;42.004;24.868;2023-05-19T03:54:32;98213.66;;;14.29;100.00
6532;BME280;3299;42.004;24.868;2023-05-19T03:56:57;98184.22;;;14.29;100.00
6532;BME280;3299;42.004;24.868;2023-05-19T03:59:23;98223.31;;;14.48;100.00
6532;BME280;3299;42.004;24.868;2023-05-19T04:01:49;98188.16;;;14.23;100.00
6532;BME280;3299;42.004;24.868;2023-05-19T04:04:15;98217.13;;;14.39;100.00
6532;BME280;3299;42.004;24.868;2023-05-19T04:06:40;98196.59;;;14.16;100.00
6532;BME280;3299;42.004;24.868;2023-05-19T04:09:13;98228.50;;;14.38;100.00
6532;BME280;3299;42.004;24.868;2023-05-19T04:11:40;98230.03;;;14.41;100.00
6532;BME280;3299;42.004;24.868;2023-05-19T04:14:06;98186.41;;;14.24;100.00
6532;BME280;3299;42.004;24.868;2023-05-19T04:16:32;98231.16;;;14.57;100.00
6532;BME280;3299;42.004;24.868;2023-05-19T04:18:57;98216.06;;;14.51;100.00
6532;BME280;3299;42.004;24.868;2023-05-19T04:21:25;98216.72;;;14.44;100.00
6532;BME280;3299;42.004;24.868;2023-05-19T04:23:51;98183.94;;;14.32;100.00
6532;BME280;3299;42.004;24.868;2023-05-19T04:26:17;98194.53;;;14.40;100.00
6532;BME280;3299;42.004;24.868;2023-05-19T04:28:43;98178.75;;;14.32;100.00
6532;BME280;3299;42.004;24.868;2023-05-19T04:31:11;98173.13;;;14.36;100.00
6532;BME280;3299;42.004;24.868;2023-05-19T04:33:41;98221.84;;;14.74;100.00
6532;BME280;3299;42.004;24.868;2023-05-19T04:36:07;98226.13;;;14.94;100.00
6532;BME280;3299;42.004;24.868;2023-05-19T04:38:38;98232.72;;;14.98;100.00
6532;BME280;3299;42.004;24.868;2023-05-19T04:41:06;98250.81;;;15.18;100.00
6532;BME280;3299;42.004;24.868;2023-05-19T04:43:35;98172.34;;;14.74;100.00
6532;BME280;3299;42.004;24.868;2023-05-19T04:46:02;98178.69;;;14.81;100.00
6532;BME280;3299;42.004;24.868;2023-05-19T04:48:30;98239.31;;;15.30;100.00
6532;BME280;3299;42.004;24.868;2023-05-19T04:50:56;98170.19;;;15.07;100.00
6532;BME280;3299;42.004;24.868;2023-05-19T04:53:22;98175.38;;;15.17;100.00
6532;BME280;3299;42.004;24.868;2023-05-19T04:55:50;98219.25;;;15.50;100.00
6532;BME280;3299;42.004;24.868;2023-05-19T04:58:15;98226.91;;;15.61;100.00
6532;BME280;3299;42.004;24.868;2023-05-19T05:00:41;98175.38;;;15.36;100.00
6532;BME280;3299;42.004;24.868;2023-05-19T05:03:06;98251.56;;;15.85;100.00
6532;BME280;3299;42.004;24.868;2023-05-19T05:05:33;98244.16;;;15.90;100.00
6532;BME280;3299;42.004;24.868;2023-05-19T05:07:58;98256.16;;;16.10;100.00
6532;BME280;3299;42.004;24.868;2023-05-19T05:10:24;98268.50;;;16.18;100.00
6532;BME280;3299;42.004;24.868;2023-05-19T05:12:50;98178.72;;;15.65;100.00
6532;BME280;3299;42.004;24.868;2023-05-19T05:15:16;98177.19;;;15.72;100.00
6532;BME280;3299;42.004;24.868;2023-05-19T05:17:42;98204.84;;;16.01;100.00
6532;BME280;3299;42.004;24.868;2023-05-19T05:20:08;98226.59;;;16.19;100.00
6532;BME280;3299;42.004;24.868;2023-05-19T05:22:35;98192.19;;;16.06;100.00
6532;BME280;3299;42.004;24.868;2023-05-19T05:25:03;98231.78;;;16.29;100.00
6532;BME280;3299;42.004;24.868;2023-05-19T05:27:28;98238.19;;;16.44;100.00
6532;BME280;3299;42.004;24.868;2023-05-19T05:29:54;98266.75;;;16.72;99.13
6532;BME280;3299;42.004;24.868;2023-05-19T05:32:20;98245.53;;;16.58;100.00
6532;BME280;3299;42.004;24.868;2023-05-19T05:34:45;98247.63;;;16.72;99.78
6532;BME280;3299;42.004;24.868;2023-05-19T05:37:11;98257.59;;;16.86;98.06
6532;BME280;3299;42.004;24.868;2023-05-19T05:39:36;98300.19;;;17.13;97.92
6532;BME280;3299;42.004;24.868;2023-05-19T05:42:01;98300.84;;;17.15;94.40
6532;BME280;3299;42.004;24.868;2023-05-19T05:44:27;98302.06;;;17.21;97.32
6532;BME280;3299;42.004;24.868;2023-05-19T05:46:52;98259.69;;;17.00;98.57
6532;BME280;3299;42.004;24.868;2023-05-19T05:49:18;98304.44;;;17.14;100.00
6532;BME280;3299;42.004;24.868;2023-05-19T05:51:44;98274.09;;;16.86;98.44
6532;BME280;3299;42.004;24.868;2023-05-19T05:54:11;98313.13;;;17.15;98.92
6532;BME280;3299;42.004;24.868;2023-05-19T05:56:36;98283.69;;;16.95;99.33
6532;BME280;3299;42.004;24.868;2023-05-19T05:59:02;98300.78;;;16.90;99.84
6532;BME280;3299;42.004;24.868;2023-05-19T06:01:27;98309.53;;;16.98;100.00
6532;BME280;3299;42.004;24.868;2023-05-19T06:03:55;98238.09;;;16.63;100.00
6532;BME280;3299;42.004;24.868;2023-05-19T06:06:20;98240.78;;;16.71;100.00
6532;BME280;3299;42.004;24.868;2023-05-19T06:08:46;98253.56;;;16.74;100.00
6532;BME280;3299;42.004;24.868;2023-05-19T06:11:11;98274.06;;;16.96;100.00
6532;BME280;3299;42.004;24.868;2023-05-19T06:13:37;98331.28;;;17.34;100.00
6532;BME280;3299;42.004;24.868;2023-05-19T06:16:03;98257.91;;;17.00;99.77
6532;BME280;3299;42.004;24.868;2023-05-19T06:18:29;98286.97;;;17.32;98.75
6532;BME280;3299;42.004;24.868;2023-05-19T06:20:54;98348.50;;;17.71;96.50
6532;BME280;3299;42.004;24.868;2023-05-19T06:23:20;98335.28;;;17.55;97.20
6532;BME280;3299;42.004;24.868;2023-05-19T06:25:45;98316.38;;;17.44;97.77
6532;BME280;3299;42.004;24.868;2023-05-19T06:28:11;98265.03;;;17.08;98.94
6532;BME280;3299;42.004;24.868;2023-05-19T06:30:37;98334.47;;;17.55;96.73
6532;BME280;3299;42.004;24.868;2023-05-19T06:33:02;98343.66;;;17.59;97.17
6532;BME280;3299;42.004;24.868;2023-05-19T06:35:29;98310.03;;;17.46;96.96
6532;BME280;3299;42.004;24.868;2023-05-19T06:37:54;98270.78;;;17.46;96.38
6532;BME280;3299;42.004;24.868;2023-05-19T06:40:22;98324.63;;;17.92;95.99
6532;BME280;3299;42.004;24.868;2023-05-19T06:42:48;98272.34;;;17.57;93.10
6532;BME280;3299;42.004;24.868;2023-05-19T06:45:13;98273.59;;;17.53;93.93
6532;BME280;3299;42.004;24.868;2023-05-19T06:47:39;98313.38;;;17.74;93.17
6532;BME280;3299;42.004;24.868;2023-05-19T06:50:08;98274.03;;;17.40;94.38
6532;BME280;3299;42.004;24.868;2023-05-19T06:52:34;98305.47;;;17.48;96.59
6532;BME280;3299;42.004;24.868;2023-05-19T06:55:00;98269.88;;;17.20;96.87
6532;BME280;3299;42.004;24.868;2023-05-19T06:57:25;98326.59;;;17.20;100.00
6532;BME280;3299;42.004;24.868;2023-05-19T06:59:51;98355.50;;;17.36;100.00
6532;BME280;3299;42.004;24.868;2023-05-19T07:02:19;98350.31;;;17.09;100.00
6532;BME280;3299;42.004;24.868;2023-05-19T07:04:44;98337.41;;;17.07;100.00
6532;BME280;3299;42.004;24.868;2023-05-19T07:07:10;98333.63;;;16.92;100.00
6532;BME280;3299;42.004;24.868;2023-05-19T07:09:35;98277.94;;;16.65;100.00
6532;BME280;3299;42.004;24.868;2023-05-19T07:12:01;98332.09;;;17.17;100.00
6532;BME280;3299;42.004;24.868;2023-05-19T07:14:26;98333.25;;;17.32;100.00
6532;BME280;3299;42.004;24.868;2023-05-19T07:16:52;98311.44;;;17.41;100.00
6532;BME280;3299;42.004;24.868;2023-05-19T07:19:17;98272.06;;;17.25;100.00
6532;BME280;3299;42.004;24.868;2023-05-19T07:21:44;98348.19;;;17.92;100.00
6532;BME280;3299;42.004;24.868;2023-05-19T07:24:10;98340.81;;;18.13;99.11
6532;BME280;3299;42.004;24.868;2023-05-19T07:26:35;98310.16;;;18.05;97.73
6532;BME280;3299;42.004;24.868;2023-05-19T07:29:01;98304.81;;;18.15;95.52
6532;BME280;3299;42.004;24.868;2023-05-19T07:31:26;98289.47;;;18.20;95.96
6532;BME280;3299;42.004;24.868;2023-05-19T07:33:51;98361.19;;;18.78;92.43
6532;BME280;3299;42.004;24.868;2023-05-19T07:36:17;98316.94;;;18.75;90.59
6532;BME280;3299;42.004;24.868;2023-05-19T07:38:44;98321.91;;;18.86;91.38
6532;BME280;3299;42.004;24.868;2023-05-19T07:41:10;98350.50;;;19.13;93.21
6532;BME280;3299;42.004;24.868;2023-05-19T07:43:36;98362.41;;;19.33;89.58
6532;BME280;3299;42.004;24.868;2023-05-19T07:46:01;98365.00;;;19.25;88.32
6532;BME280;3299;42.004;24.868;2023-05-19T07:48:27;98360.38;;;19.19;87.26
6532;BME280;3299;42.004;24.868;2023-05-19T07:50:54;98361.09;;;19.29;87.84
6532;BME280;3299;42.004;24.868;2023-05-19T07:53:19;98340.06;;;19.21;87.73
6532;BME280;3299;42.004;24.868;2023-05-19T07:55:47;98317.00;;;18.99;89.84
6532;BME280;3299;42.004;24.868;2023-05-19T07:58:12;98369.41;;;19.24;88.04
6532;BME280;3299;42.004;24.868;2023-05-19T08:00:38;98366.97;;;19.23;89.82
6532;BME280;3299;42.004;24.868;2023-05-19T08:03:03;98334.13;;;19.19;87.72
6532;BME280;3299;42.004;24.868;2023-05-19T08:05:28;98304.44;;;19.10;88.67
6532;BME280;3299;42.004;24.868;2023-05-19T08:07:55;98366.53;;;19.51;87.86
6532;BME280;3299;42.004;24.868;2023-05-19T08:10:20;98310.56;;;19.27;89.12
6532;BME280;3299;42.004;24.868;2023-05-19T08:12:46;98359.81;;;19.57;90.13
6532;BME280;3299;42.004;24.868;2023-05-19T08:15:11;98352.88;;;19.24;87.21
6532;BME280;3299;42.004;24.868;2023-05-19T08:17:37;98389.50;;;19.49;87.20
6532;BME280;3299;42.004;24.868;2023-05-19T08:20:03;98391.66;;;19.54;83.86
6532;BME280;3299;42.004;24.868;2023-05-19T08:22:30;98385.75;;;19.68;80.50
6532;BME280;3299;42.004;24.868;2023-05-19T08:24:55;98350.63;;;19.61;80.28
6532;BME280;3299;42.004;24.868;2023-05-19T08:27:21;98373.97;;;19.88;78.79
6532;BME280;3299;42.004;24.868;2023-05-19T08:29:46;98398.63;;;20.19;78.27
6532;BME280;3299;42.004;24.868;2023-05-19T08:32:12;98418.31;;;20.39;73.51
6532;BME280;3299;42.004;24.868;2023-05-19T08:34:37;98404.16;;;20.48;69.57
6532;BME280;3299;42.004;24.868;2023-05-19T08:37:03;98404.13;;;20.64;68.84
6532;BME280;3299;42.004;24.868;2023-05-19T08:39:28;98341.75;;;20.42;66.97
6532;BME280;3299;42.004;24.868;2023-05-19T08:41:54;98413.94;;;20.94;68.68
6532;BME280;3299;42.004;24.868;2023-05-19T08:44:20;98367.56;;;20.85;71.12
6532;BME280;3299;42.004;24.868;2023-05-19T08:46:46;98394.00;;;20.99;69.57
6532;BME280;3299;42.004;24.868;2023-05-19T08:49:13;98386.31;;;20.98;67.05
6532;BME280;3299;42.004;24.868;2023-05-19T08:52:01;98341.47;;;20.83;66.20
6532;BME280;3299;42.004;24.868;2023-05-19T08:54:42;98402.25;;;21.35;64.65
6532;BME280;3299;42.004;24.868;2023-05-19T08:57:10;98402.00;;;21.52;66.03
6532;BME280;3299;42.004;24.868;2023-05-19T08:59:36;98398.78;;;21.65;66.22
6532;BME280;3299;42.004;24.868;2023-05-19T09:02:02;98415.00;;;21.84;65.12
6532;BME280;3299;42.004;24.868;2023-05-19T09:04:28;98375.06;;;21.73;64.60
6532;BME280;3299;42.004;24.868;2023-05-19T09:06:54;98376.63;;;21.82;62.22
6532;BME280;3299;42.004;24.868;2023-05-19T09:09:21;98395.50;;;21.93;64.84
6532;BME280;3299;42.004;24.868;2023-05-19T09:11:46;98381.84;;;21.90;63.98
6532;BME280;3299;42.004;24.868;2023-05-19T09:14:11;98342.00;;;21.70;63.20
6532;BME280;3299;42.004;24.868;2023-05-19T09:16:37;98422.75;;;22.23;63.83
6532;BME280;3299;42.004;24.868;2023-05-19T09:19:03;98382.44;;;22.00;63.40
6532;BME280;3299;42.004;24.868;2023-05-19T09:21:29;98352.28;;;21.80;62.46
6532;BME280;3299;42.004;24.868;2023-05-19T09:23:56;98392.09;;;22.07;60.64
6532;BME280;3299;42.004;24.868;2023-05-19T09:26:22;98422.16;;;22.13;60.99
6532;BME280;3299;42.004;24.868;2023-05-19T09:28:48;98398.19;;;22.08;61.83
6532;BME280;3299;42.004;24.868;2023-05-19T09:31:13;98349.00;;;21.78;61.97
6532;BME280;3299;42.004;24.868;2023-05-19T09:33:40;98350.75;;;21.85;63.41
6532;BME280;3299;42.004;24.868;2023-05-19T09:36:09;98408.06;;;22.28;61.83
6532;BME280;3299;42.004;24.868;2023-05-19T09:38:37;98403.88;;;22.34;61.98
6532;BME280;3299;42.004;24.868;2023-05-19T09:41:04;98350.47;;;22.03;63.75
6532;BME280;3299;42.004;24.868;2023-05-19T09:43:31;98387.69;;;22.22;60.75
6532;BME280;3299;42.004;24.868;2023-05-19T09:48:26;98372.88;;;22.36;62.60
6532;BME280;3299;42.004;24.868;2023-05-19T09:50:52;98391.94;;;22.46;62.62
6532;BME280;3299;42.004;24.868;2023-05-19T09:53:18;98390.88;;;22.55;62.52
6532;BME280;3299;42.004;24.868;2023-05-19T09:55:45;98352.31;;;22.31;62.98
6532;BME280;3299;42.004;24.868;2023-05-19T09:58:15;98353.06;;;22.40;62.52
6532;BME280;3299;42.004;24.868;2023-05-19T10:00:42;98395.03;;;22.64;62.89
6532;BME280;3299;42.004;24.868;2023-05-19T10:03:08;98394.59;;;22.60;62.25
6532;BME280;3299;42.004;24.868;2023-05-19T10:05:34;98416.88;;;22.87;59.98
6532;BME280;3299;42.004;24.868;2023-05-19T10:08:00;98332.81;;;22.40;59.84
6532;BME280;3299;42.004;24.868;2023-05-19T10:10:27;98330.97;;;22.41;61.14
6532;BME280;3299;42.004;24.868;2023-05-19T10:12:53;98407.63;;;22.91;61.90
6532;BME280;3299;42.004;24.868;2023-05-19T10:15:19;98362.22;;;22.66;61.59
6532;BME280;3299;42.004;24.868;2023-05-19T10:17:44;98377.59;;;22.77;61.99
6532;BME280;3299;42.004;24.868;2023-05-19T10:20:12;98387.97;;;22.93;62.56
6532;BME280;3299;42.004;24.868;2023-05-19T10:22:38;98361.19;;;22.96;62.04
6532;BME280;3299;42.004;24.868;2023-05-19T10:25:04;98331.53;;;22.80;59.04
6532;BME280;3299;42.004;24.868;2023-05-19T10:27:33;98351.47;;;22.82;60.26
6532;BME280;3299;42.004;24.868;2023-05-19T10:30:05;98347.66;;;22.56;60.71
6532;BME280;3299;42.004;24.868;2023-05-19T10:32:32;98337.84;;;22.50;60.21
6532;BME280;3299;42.004;24.868;2023-05-19T10:40:37;98403.59;;;22.51;61.94
6532;BME280;3299;42.004;24.868;2023-05-19T10:45:56;98430.84;;;22.44;60.20
6532;BME280;3299;42.004;24.868;2023-05-19T10:48:22;98371.78;;;21.93;61.08
6532;BME280;3299;42.004;24.868;2023-05-19T10:50:52;98440.75;;;22.19;66.94
6532;BME280;3299;42.004;24.868;2023-05-19T10:53:18;98446.13;;;22.03;70.44
6532;BME280;3299;42.004;24.868;2023-05-19T10:58:14;98401.75;;;21.01;80.94
6532;BME280;3299;42.004;24.868;2023-05-19T11:00:39;98446.88;;;20.42;98.57
6532;BME280;3299;42.004;24.868;2023-05-19T11:03:12;98437.69;;;20.30;93.65
6532;BME280;3299;42.004;24.868;2023-05-19T11:05:38;98441.25;;;19.81;100.00
6532;BME280;3299;42.004;24.868;2023-05-19T11:08:05;98409.31;;;19.36;100.00
6532;BME280;3299;42.004;24.868;2023-05-19T11:10:32;98386.47;;;18.87;99.60
6532;BME280;3299;42.004;24.868;2023-05-19T11:12:58;98328.56;;;18.39;100.00
6532;BME280;3299;42.004;24.868;2023-05-19T11:15:27;98385.69;;;18.35;100.00
6532;BME280;3299;42.004;24.868;2023-05-19T11:17:53;98381.75;;;18.14;100.00
6532;BME280;3299;42.004;24.868;2023-05-19T11:20:26;98372.78;;;17.99;100.00
6532;BME280;3299;42.004;24.868;2023-05-19T11:23:08;98338.56;;;17.40;100.00
6532;BME280;3299;42.004;24.868;2023-05-19T11:26:00;98381.78;;;17.44;100.00
6532;BME280;3299;42.004;24.868;2023-05-19T11:28:26;98343.59;;;17.24;100.00
6532;BME280;3299;42.004;24.868;2023-05-19T11:30:54;98292.94;;;16.90;100.00
6532;BME280;3299;42.004;24.868;2023-05-19T11:33:22;98360.25;;;17.50;100.00
6532;BME280;3299;42.004;24.868;2023-05-19T11:35:52;98386.88;;;17.80;100.00
6532;BME280;3299;42.004;24.868;2023-05-19T11:38:19;98334.19;;;18.01;100.00
6532;BME280;3299;42.004;24.868;2023-05-19T11:40:45;98373.66;;;18.76;100.00
6532;BME280;3299;42.004;24.868;2023-05-19T11:43:11;98370.25;;;19.25;100.00
6532;BME280;3299;42.004;24.868;2023-05-19T11:45:37;98346.38;;;19.60;100.00
6532;BME280;3299;42.004;24.868;2023-05-19T11:48:03;98335.88;;;19.92;100.00
6532;BME280;3299;42.004;24.868;2023-05-19T11:50:30;98300.75;;;20.17;100.00
6532;BME280;3299;42.004;24.868;2023-05-19T11:52:56;98323.50;;;20.48;95.19
6532;BME280;3299;42.004;24.868;2023-05-19T11:55:22;98317.88;;;20.59;91.48
6532;BME280;3299;42.004;24.868;2023-05-19T11:57:57;98369.50;;;21.07;92.41
6532;BME280;3299;42.004;24.868;2023-05-19T12:00:29;98338.28;;;21.04;100.00
6532;BME280;3299;42.004;24.868;2023-05-19T12:03:01;98365.34;;;21.43;90.59
6532;BME280;3299;42.004;24.868;2023-05-19T12:05:27;98368.34;;;21.70;90.43
6532;BME280;3299;42.004;24.868;2023-05-19T12:07:53;98324.03;;;21.66;89.51
6532;BME280;3299;42.004;24.868;2023-05-19T12:10:26;98355.84;;;22.24;90.21
6532;BME280;3299;42.004;24.868;2023-05-19T12:12:53;98350.31;;;22.33;84.88
6532;BME280;3299;42.004;24.868;2023-05-19T12:15:23;98357.31;;;22.63;83.09
6532;BME280;3299;42.004;24.868;2023-05-19T12:17:59;98335.94;;;22.58;81.47
6532;BME280;3299;42.004;24.868;2023-05-19T12:20:26;98368.31;;;22.96;81.26
6532;BME280;3299;42.004;24.868;2023-05-19T12:22:56;98294.91;;;22.56;76.19
6532;BME280;3299;42.004;24.868;2023-05-19T12:25:22;98302.16;;;22.68;76.89
6532;BME280;3299;42.004;24.868;2023-05-19T12:27:48;98343.47;;;22.76;76.26
6532;BME280;3299;42.004;24.868;2023-05-19T12:30:15;98355.25;;;23.09;75.25
6532;BME280;3299;42.004;24.868;2023-05-19T12:32:41;98364.81;;;23.24;73.05
6532;BME280;3299;42.004;24.868;2023-05-19T12:35:08;98297.56;;;22.91;75.32
6532;BME280;3299;42.004;24.868;2023-05-19T12:37:33;98282.38;;;23.08;71.78
6532;BME280;3299;42.004;24.868;2023-05-19T12:40:01;98349.16;;;23.58;71.70
6532;BME280;3299;42.004;24.868;2023-05-19T12:42:30;98335.00;;;23.66;69.60
6532;BME280;3299;42.004;24.868;2023-05-19T12:44:57;98291.88;;;23.59;68.39
6532;BME280;3299;42.004;24.868;2023-05-19T12:47:34;98324.94;;;23.97;69.98
6532;BME280;3299;42.004;24.868;2023-05-19T12:50:05;98292.03;;;23.99;64.40
6532;BME280;3299;42.004;24.868;2023-05-19T12:52:42;98284.84;;;24.20;67.87
6532;BME280;3299;42.004;24.868;2023-05-19T12:55:08;98312.78;;;24.29;62.73
6532;BME280;3299;42.004;24.868;2023-05-19T12:57:37;98353.75;;;24.67;64.53
6532;BME280;3299;42.004;24.868;2023-05-19T13:02:41;98292.97;;;24.87;60.03
6532;BME280;3299;42.004;24.868;2023-05-19T13:05:19;98313.63;;;25.11;60.63
6532;BME280;3299;42.004;24.868;2023-05-19T13:07:55;98345.38;;;25.51;59.41
6532;BME280;3299;42.004;24.868;2023-05-19T13:10:21;98280.53;;;25.41;59.00
6532;BME280;3299;42.004;24.868;2023-05-19T13:12:47;98277.09;;;25.53;61.01
6532;BME280;3299;42.004;24.868;2023-05-19T13:15:12;98305.28;;;25.93;58.20
6532;BME280;3299;42.004;24.868;2023-05-19T13:17:38;98340.16;;;26.29;58.95
6532;BME280;3299;42.004;24.868;2023-05-19T13:20:03;98314.44;;;26.36;56.99
6532;BME280;3299;42.004;24.868;2023-05-19T13:22:29;98295.06;;;26.36;64.17
6532;BME280;3299;42.004;24.868;2023-05-19T13:24:55;98323.22;;;26.56;60.77
6532;BME280;3299;42.004;24.868;2023-05-19T13:27:23;98282.81;;;26.35;61.13
6532;BME280;3299;42.004;24.868;2023-05-19T13:29:49;98350.75;;;26.68;61.52
6532;BME280;3299;42.004;24.868;2023-05-19T13:32:14;98351.31;;;26.83;55.80
6532;BME280;3299;42.004;24.868;2023-05-19T13:34:40;98295.22;;;26.47;58.61
6532;BME280;3299;42.004;24.868;2023-05-19T13:37:05;98345.72;;;27.04;55.63